Time;durP1;ratioP1;P1;durP2;ratioP2;P2;SDS_P1;SDS_P2;PMS_P1;PMS_P2;Temp;Humidity;BMP_temperature;BMP_pressure;BME280_temperature;BME280_humidity;BME280_pressure;Samples;Min_cycle;Max_cycle;Signal;HPM_P1;HPM_P2
2022/04/22 00:02:05;;;;;;;11.07;7.60;;;9.90;99.90;;;;;;5056087;28;20108;-77
2022/04/22 00:04:30;;;;;;;11.68;7.90;;;9.80;99.90;;;;;;5056901;28;20028;-79
2022/04/22 00:06:56;;;;;;;12.30;7.40;;;9.70;99.90;;;;;;5038986;28;20029;-78
2022/04/22 00:09:22;;;;;;;10.30;7.43;;;9.70;99.90;;;;;;5056415;28;20025;-78
2022/04/22 00:11:47;;;;;;;12.38;7.72;;;9.70;99.90;;;;;;5056321;28;20041;-79
2022/04/22 00:14:13;;;;;;;15.75;8.48;;;9.60;99.90;;;;;;5038215;28;20024;-78
2022/04/22 00:16:38;;;;;;;13.93;8.60;;;9.70;99.90;;;;;;5056196;28;20312;-77
2022/04/22 00:19:04;;;;;;;13.07;8.15;;;9.70;99.90;;;;;;5038187;28;20547;-80
2022/04/22 00:21:30;;;;;;;13.70;7.72;;;9.80;99.90;;;;;;5056145;28;20112;-79
2022/04/22 00:23:55;;;;;;;10.02;8.18;;;9.90;99.90;;;;;;5039317;28;20032;-78
2022/04/22 00:26:21;;;;;;;12.88;9.18;;;9.90;99.90;;;;;;5055904;28;20033;-80
2022/04/22 00:28:47;;;;;;;14.13;8.77;;;10.00;99.90;;;;;;5055239;28;20055;-78
2022/04/22 00:31:13;;;;;;;13.43;9.57;;;10.00;99.90;;;;;;5037805;28;20071;-79
2022/04/22 00:33:39;;;;;;;14.85;9.20;;;10.10;99.90;;;;;;5055374;28;20033;-79
2022/04/22 00:36:05;;;;;;;15.30;9.43;;;10.10;99.90;;;;;;5055225;28;20092;-77
2022/04/22 00:38:30;;;;;;;14.23;9.45;;;10.10;99.90;;;;;;5055326;28;20033;-78
2022/04/22 00:40:56;;;;;;;14.65;10.02;;;10.10;99.90;;;;;;5037363;28;20017;-77
2022/04/22 00:43:26;;;;;;;15.13;9.98;;;10.10;99.90;;;;;;5055620;28;20396;-80
2022/04/22 00:45:53;;;;;;;15.02;9.65;;;10.00;99.90;;;;;;5069302;28;20089;-78
2022/04/22 00:48:20;;;;;;;15.18;9.52;;;10.00;99.90;;;;;;5057869;28;20119;-79
2022/04/22 00:50:46;;;;;;;14.80;10.05;;;10.00;99.90;;;;;;5075175;28;20099;-79
2022/04/22 00:53:13;;;;;;;18.42;10.65;;;10.00;99.90;;;;;;5057796;28;20032;-79
2022/04/22 00:55:41;;;;;;;19.25;11.20;;;10.00;99.90;;;;;;5075356;28;20077;-78
2022/04/22 00:58:08;;;;;;;14.15;9.43;;;10.00;99.90;;;;;;5075578;28;20073;-79
2022/04/22 01:00:33;;;;;;;14.82;10.05;;;10.10;99.90;;;;;;5075059;28;20051;-79
2022/04/22 01:02:59;;;;;;;12.70;8.65;;;10.10;99.90;;;;;;5075034;28;20029;-77
2022/04/22 01:10:56;;;;;;;15.90;10.18;;;10.10;99.90;;;;;;5074960;28;20032;-79
2022/04/22 01:13:22;;;;;;;16.48;9.95;;;10.00;99.90;;;;;;5075018;28;20051;-77
2022/04/22 01:15:47;;;;;;;16.08;10.13;;;10.00;99.90;;;;;;5057362;28;20021;-79
2022/04/22 01:18:17;;;;;;;13.98;10.20;;;10.00;99.90;;;;;;5056108;28;20025;-79
2022/04/22 01:20:43;;;;;;;15.13;10.10;;;10.00;99.90;;;;;;5057427;28;20104;-78
2022/04/22 01:23:09;;;;;;;15.13;9.75;;;10.00;99.90;;;;;;5074870;28;20464;-78
2022/04/22 01:25:39;;;;;;;16.42;10.05;;;9.90;99.90;;;;;;5076021;28;20498;-78
2022/04/22 01:28:04;;;;;;;17.95;10.82;;;9.80;99.90;;;;;;5074919;28;20396;-79
2022/04/22 01:30:30;;;;;;;18.55;11.35;;;9.80;99.90;;;;;;5076178;28;20047;-79
2022/04/22 01:32:56;;;;;;;12.82;10.45;;;9.80;99.90;;;;;;5075997;28;20017;-79
2022/04/22 01:35:24;;;;;;;17.75;10.88;;;9.70;99.90;;;;;;5057419;28;20047;-79
2022/04/22 01:37:50;;;;;;;14.38;10.25;;;9.70;99.90;;;;;;5075214;28;20072;-78
2022/04/22 01:40:16;;;;;;;17.98;11.57;;;9.70;99.90;;;;;;5074230;28;20420;-79
2022/04/22 01:42:42;;;;;;;15.40;11.05;;;9.70;99.90;;;;;;5074127;28;20043;-77
2022/04/22 01:45:09;;;;;;;16.25;11.02;;;9.60;99.90;;;;;;5067904;28;20041;-79
2022/04/22 01:47:35;;;;;;;20.08;11.80;;;9.60;99.90;;;;;;5054513;28;20491;-79
2022/04/22 01:50:02;;;;;;;16.35;11.85;;;9.50;99.90;;;;;;5054290;28;20104;-79
2022/04/22 01:52:28;;;;;;;20.08;11.68;;;9.50;99.90;;;;;;5055265;28;20412;-79
2022/04/22 01:54:56;;;;;;;18.27;11.95;;;9.50;99.90;;;;;;5058770;28;20304;-79
2022/04/22 01:57:23;;;;;;;18.13;11.15;;;9.50;99.90;;;;;;5040926;28;20102;-79
2022/04/22 01:59:49;;;;;;;18.05;11.30;;;9.50;99.90;;;;;;5059426;28;20029;-79
2022/04/22 02:02:16;;;;;;;17.52;11.50;;;9.50;99.90;;;;;;5058705;28;20017;-78
2022/04/22 02:04:42;;;;;;;17.35;11.27;;;9.50;99.90;;;;;;5058532;28;20021;-79
2022/04/22 02:07:08;;;;;;;19.05;11.73;;;9.40;99.90;;;;;;5058720;28;20112;-79
2022/04/22 02:09:33;;;;;;;21.48;13.82;;;9.40;99.90;;;;;;5058200;28;20020;-79
2022/04/22 02:11:59;;;;;;;22.58;15.15;;;9.40;99.90;;;;;;5059114;28;20033;-78
2022/04/22 02:14:25;;;;;;;24.58;16.45;;;9.40;99.90;;;;;;5058858;28;20182;-79
2022/04/22 02:16:54;;;;;;;31.20;17.85;;;9.40;99.90;;;;;;5058001;28;20029;-77
2022/04/22 02:19:20;;;;;;;26.23;17.27;;;9.30;99.90;;;;;;5039885;28;20025;-78
2022/04/22 02:21:46;;;;;;;24.95;17.20;;;9.30;99.90;;;;;;5057927;28;20400;-77
2022/04/22 02:24:12;;;;;;;23.83;15.32;;;9.40;99.90;;;;;;5058477;28;20040;-78
2022/04/22 02:29:22;;;;;;;21.42;13.98;;;9.30;99.90;;;;;;5057744;28;20082;-78
2022/04/22 02:31:52;;;;;;;22.95;13.50;;;9.20;99.90;;;;;;5067235;22;20124;-81
2022/04/22 02:34:21;;;;;;;24.65;14.88;;;9.30;99.90;;;;;;5019567;28;20025;-80
2022/04/22 02:36:47;;;;;;;21.17;13.38;;;9.20;99.90;;;;;;5037717;28;20028;-82
2022/04/22 02:39:13;;;;;;;21.52;13.20;;;9.20;99.90;;;;;;5037299;28;20432;-82
2022/04/22 02:47:07;;;;;;;22.60;13.35;;;9.10;99.90;;;;;;5058138;28;20087;-80
2022/04/22 02:49:32;;;;;;;20.63;13.02;;;9.10;99.90;;;;;;5057165;28;20025;-82
2022/04/22 02:51:58;;;;;;;20.70;13.48;;;9.10;99.90;;;;;;5056683;28;20086;-82
2022/04/22 02:54:24;;;;;;;24.75;14.27;;;9.00;99.90;;;;;;5039055;28;20039;-82
2022/04/22 02:56:53;;;;;;;23.40;13.55;;;9.00;99.90;;;;;;5057393;28;20429;-81
2022/04/22 02:59:19;;;;;;;21.52;13.52;;;9.00;99.90;;;;;;5039311;28;20143;-79
2022/04/22 03:01:45;;;;;;;21.88;13.48;;;9.00;99.90;;;;;;5057662;28;20029;-79
2022/04/22 03:04:12;;;;;;;21.58;14.65;;;9.00;99.90;;;;;;5038857;28;20039;-81
2022/04/22 03:06:37;;;;;;;23.13;13.70;;;9.00;99.90;;;;;;5057031;28;20017;-81
2022/04/22 03:09:04;;;;;;;24.88;14.32;;;9.00;99.90;;;;;;5038810;28;20057;-81
2022/04/22 03:11:30;;;;;;;26.25;15.13;;;8.90;99.90;;;;;;5042607;28;20092;-82
2022/04/22 03:13:55;;;;;;;22.70;13.95;;;8.90;99.90;;;;;;5042825;28;20059;-82
2022/04/22 03:16:24;;;;;;;23.77;15.23;;;8.90;99.90;;;;;;5058191;28;20075;-81
2022/04/22 03:18:50;;;;;;;23.70;14.98;;;8.90;99.90;;;;;;5056962;28;20025;-81
2022/04/22 03:21:16;;;;;;;23.13;14.40;;;8.90;99.90;;;;;;5057688;28;20047;-81
2022/04/22 03:23:42;;;;;;;26.42;15.40;;;8.90;99.90;;;;;;5040118;28;20039;-81
2022/04/22 03:26:07;;;;;;;31.35;16.25;;;8.80;99.90;;;;;;5039556;28;20032;-82
2022/04/22 03:28:33;;;;;;;28.92;15.75;;;8.80;99.90;;;;;;5040098;28;20258;-80
2022/04/22 03:30:58;;;;;;;26.45;15.68;;;8.70;99.90;;;;;;5040050;28;20104;-81
2022/04/22 03:33:24;;;;;;;30.27;16.42;;;8.80;99.90;;;;;;5056243;28;20025;-80
2022/04/22 03:35:50;;;;;;;27.23;16.08;;;8.70;99.90;;;;;;5038436;28;20013;-81
2022/04/22 03:38:16;;;;;;;26.13;16.05;;;8.70;99.90;;;;;;5056861;28;20371;-79
2022/04/22 03:40:42;;;;;;;22.70;15.60;;;8.70;99.90;;;;;;5038327;28;20125;-80
2022/04/22 03:43:08;;;;;;;26.13;15.93;;;8.70;99.90;;;;;;5038860;28;20056;-79
2022/04/22 03:45:34;;;;;;;26.45;16.40;;;8.70;99.90;;;;;;5046415;28;20079;-80
2022/04/22 03:48:00;;;;;;;33.05;18.85;;;8.70;99.90;;;;;;5036036;28;20029;-81
2022/04/22 03:50:26;;;;;;;29.05;17.48;;;8.70;99.90;;;;;;5019238;28;20032;-79
2022/04/22 03:52:52;;;;;;;31.48;18.55;;;8.70;99.90;;;;;;5037597;28;20486;-79
2022/04/22 03:55:18;;;;;;;29.98;18.55;;;8.80;99.90;;;;;;5036752;28;20022;-82
2022/04/22 04:00:50;;;;;;;29.85;18.20;;;8.90;99.90;;;;;;4955805;28;20394;-81
2022/04/22 04:03:23;;;;;;;29.80;19.60;;;9.00;99.90;;;;;;4955965;28;20082;-78
2022/04/22 04:05:51;;;;;;;30.77;18.70;;;9.10;99.90;;;;;;4990625;28;20128;-80
2022/04/22 04:08:18;;;;;;;31.25;20.02;;;9.10;99.90;;;;;;5018007;28;20093;-80
2022/04/22 04:16:12;;;;;;;29.02;19.60;;;9.30;99.90;;;;;;5035129;28;20053;-80
2022/04/22 04:18:38;;;;;;;29.30;19.73;;;9.30;99.90;;;;;;5035495;28;20026;-80
2022/04/22 04:23:58;;;;;;;31.70;20.33;;;9.20;99.90;;;;;;5035753;28;20407;-80
2022/04/22 04:26:25;;;;;;;32.67;21.30;;;9.20;99.90;;;;;;5018388;28;20029;-83
2022/04/22 04:28:52;;;;;;;28.05;21.13;;;9.20;99.90;;;;;;5018044;28;20029;-81
2022/04/22 04:31:18;;;;;;;32.72;20.63;;;9.20;99.90;;;;;;5009340;28;98396;-79
2022/04/22 04:33:44;;;;;;;30.45;20.08;;;9.20;99.90;;;;;;5010588;28;20075;-80
2022/04/22 04:36:10;;;;;;;30.13;20.08;;;9.30;99.90;;;;;;5036814;28;20037;-80
2022/04/22 04:38:41;;;;;;;33.80;21.75;;;9.30;99.90;;;;;;5019275;28;20191;-81
2022/04/22 04:41:09;;;;;;;33.90;20.75;;;9.30;99.90;;;;;;5019263;28;20028;-81
2022/04/22 04:43:36;;;;;;;32.92;21.95;;;9.40;99.90;;;;;;5018894;28;20044;-79
2022/04/22 04:46:02;;;;;;;31.95;21.98;;;9.40;99.90;;;;;;5051590;28;20020;-81
2022/04/22 04:48:28;;;;;;;30.35;20.48;;;9.50;99.90;;;;;;5038186;28;20024;-80
2022/04/22 04:50:55;;;;;;;31.70;22.20;;;9.50;99.90;;;;;;5056185;28;20037;-81
2022/04/22 04:53:23;;;;;;;33.10;24.40;;;9.60;99.90;;;;;;5038340;28;20017;-82
2022/04/22 04:55:50;;;;;;;31.67;21.30;;;9.60;99.90;;;;;;5038181;28;20377;-80
2022/04/22 04:58:16;;;;;;;33.05;22.00;;;9.60;99.90;;;;;;5055968;28;20517;-80
2022/04/22 05:00:44;;;;;;;37.78;22.73;;;9.60;99.90;;;;;;5055371;28;20029;-79
2022/04/22 05:03:11;;;;;;;31.20;22.58;;;9.70;99.90;;;;;;5037599;28;20021;-82
2022/04/22 05:05:36;;;;;;;31.42;22.70;;;9.70;99.90;;;;;;5037651;28;20078;-82
2022/04/22 05:08:05;;;;;;;30.55;20.73;;;9.70;99.90;;;;;;5055577;28;20029;-81
2022/04/22 05:10:32;;;;;;;30.98;21.17;;;9.80;99.90;;;;;;5054892;28;20028;-80
2022/04/22 05:12:59;;;;;;;34.30;22.08;;;9.80;99.90;;;;;;5055328;28;20019;-79
2022/04/22 05:15:26;;;;;;;32.72;21.67;;;9.80;99.90;;;;;;5056333;28;20093;-81
2022/04/22 05:17:53;;;;;;;28.75;20.58;;;9.90;99.90;;;;;;5056059;28;20022;-81
2022/04/22 05:20:23;;;;;;;30.50;21.27;;;9.90;99.90;;;;;;5038309;28;20028;-81
2022/04/22 05:22:48;;;;;;;28.67;21.38;;;9.90;99.90;;;;;;5038508;28;20092;-82
2022/04/22 05:25:15;;;;;;;32.10;22.00;;;10.00;99.90;;;;;;5056556;28;20056;-81
2022/04/22 05:27:42;;;;;;;31.67;21.52;;;10.00;99.90;;;;;;5037347;28;20032;-80
2022/04/22 05:32:53;;;;;;;29.60;21.30;;;10.10;99.90;;;;;;5056418;28;20039;-80
2022/04/22 05:35:21;;;;;;;29.77;20.63;;;10.10;99.90;;;;;;5038741;28;20021;-79
2022/04/22 05:37:59;;;;;;;31.30;20.25;;;10.10;99.90;;;;;;5037485;28;20025;-80
2022/04/22 05:40:26;;;;;;;30.75;20.67;;;10.20;99.90;;;;;;5055777;28;20021;-81
2022/04/22 05:42:53;;;;;;;28.50;19.48;;;10.20;99.90;;;;;;5057250;28;20029;-81
2022/04/22 05:45:20;;;;;;;27.63;18.05;;;10.20;99.90;;;;;;5051409;28;20040;-81
2022/04/22 05:47:46;;;;;;;26.55;18.25;;;10.20;99.90;;;;;;5026107;28;20112;-82
2022/04/22 05:50:14;;;;;;;28.05;17.60;;;10.20;99.90;;;;;;5046392;28;20037;-78
2022/04/22 05:52:40;;;;;;;26.15;17.60;;;10.20;99.90;;;;;;5044683;28;20135;-80
2022/04/22 05:55:09;;;;;;;24.17;17.85;;;10.30;99.90;;;;;;5043170;28;20032;-80
2022/04/22 05:57:35;;;;;;;24.23;17.10;;;10.30;99.90;;;;;;5019228;28;20025;-80
2022/04/22 06:00:05;;;;;;;21.63;15.85;;;10.30;99.90;;;;;;5038365;28;20101;-81
2022/04/22 06:02:30;;;;;;;25.23;16.95;;;10.30;99.90;;;;;;5019596;28;20018;-81
2022/04/22 06:04:56;;;;;;;24.15;16.85;;;10.30;99.90;;;;;;5017374;28;20159;-80
2022/04/22 06:07:22;;;;;;;21.95;16.38;;;10.40;99.90;;;;;;5036160;28;20033;-80
2022/04/22 06:12:32;;;;;;;23.80;15.85;;;10.40;99.90;;;;;;5035901;28;20168;-80
2022/04/22 06:15:02;;;;;;;23.17;15.27;;;10.50;99.90;;;;;;5036173;28;20037;-81
2022/04/22 06:17:29;;;;;;;20.38;15.27;;;10.50;99.90;;;;;;5035318;28;20013;-80
2022/04/22 06:19:55;;;;;;;22.83;16.00;;;10.50;99.90;;;;;;5018897;28;20067;-81
2022/04/22 06:22:21;;;;;;;22.38;15.55;;;10.60;99.90;;;;;;5035618;28;20067;-81
2022/04/22 06:24:46;;;;;;;21.35;14.80;;;10.70;99.90;;;;;;5017837;28;20424;-79
2022/04/22 06:27:12;;;;;;;19.15;13.65;;;10.80;99.90;;;;;;5036345;28;20061;-78
2022/04/22 06:29:40;;;;;;;21.08;13.43;;;10.90;99.90;;;;;;5034850;28;20029;-81
2022/04/22 06:32:06;;;;;;;20.27;14.90;;;11.00;99.90;;;;;;5034177;28;20034;-81
2022/04/22 06:34:31;;;;;;;21.63;14.25;;;11.10;99.90;;;;;;5034723;28;20029;-81
2022/04/22 06:36:57;;;;;;;17.88;13.80;;;11.20;99.90;;;;;;5035928;28;20030;-81
2022/04/22 06:39:23;;;;;;;15.90;12.52;;;11.40;99.90;;;;;;5039662;28;20075;-79
2022/04/22 06:47:18;;;;;;;19.90;13.70;;;11.60;99.90;;;;;;5062479;28;20407;-80
2022/04/22 06:49:44;;;;;;;19.75;12.77;;;11.70;99.90;;;;;;5039954;28;20100;-83
2022/04/22 06:52:10;;;;;;;17.08;13.40;;;11.80;99.90;;;;;;5058298;28;20025;-80
2022/04/22 06:54:36;;;;;;;15.02;11.40;;;12.20;99.90;;;;;;5058840;28;20025;-81
2022/04/22 06:57:03;;;;;;;18.10;11.10;;;12.60;99.90;;;;;;5039917;28;20025;-82
2022/04/22 06:59:29;;;;;;;18.52;12.75;;;13.10;99.90;;;;;;5057715;28;20373;-81
2022/04/22 07:01:56;;;;;;;15.95;12.10;;;13.40;99.90;;;;;;5039682;28;20024;-81
2022/04/22 07:04:24;;;;;;;15.27;11.70;;;13.30;99.90;;;;;;5058029;28;20024;-80
2022/04/22 07:06:50;;;;;;;16.52;12.50;;;13.40;99.90;;;;;;5057953;28;20021;-83
2022/04/22 07:09:16;;;;;;;18.20;11.60;;;13.40;99.90;;;;;;5040096;28;20531;-81
2022/04/22 07:11:43;;;;;;;15.27;11.20;;;13.00;99.90;;;;;;5039695;28;20048;-79
2022/04/22 07:14:10;;;;;;;13.98;10.63;;;12.60;99.90;;;;;;5057593;28;20025;-78
2022/04/22 07:16:41;;;;;;;15.65;11.05;;;12.80;99.90;;;;;;5039372;28;20496;-78
2022/04/22 07:19:07;;;;;;;15.52;11.35;;;12.80;99.90;;;;;;5039302;28;20036;-81
2022/04/22 07:21:33;;;;;;;14.65;11.10;;;12.60;99.90;;;;;;5039114;28;20467;-80
2022/04/22 07:23:59;;;;;;;16.60;12.30;;;12.50;99.90;;;;;;5056828;28;20036;-79
2022/04/22 07:26:25;;;;;;;15.20;11.30;;;12.90;99.90;;;;;;5058640;28;20032;-80
2022/04/22 07:28:51;;;;;;;16.88;11.57;;;13.40;99.90;;;;;;5037481;28;20024;-81
2022/04/22 07:31:18;;;;;;;15.23;11.50;;;13.80;99.90;;;;;;5036985;28;20033;-80
2022/04/22 07:33:44;;;;;;;14.98;11.77;;;13.90;99.90;;;;;;5038031;28;20421;-78
2022/04/22 07:36:10;;;;;;;16.60;11.75;;;13.70;99.90;;;;;;5055601;28;20025;-79
2022/04/22 07:38:36;;;;;;;18.05;13.07;;;13.30;99.90;;;;;;5037519;28;20051;-79
2022/04/22 07:41:02;;;;;;;16.38;12.43;;;12.90;99.90;;;;;;5037353;28;20368;-79
2022/04/22 07:49:11;;;;;;;14.82;11.40;;;12.60;99.90;;;;;;5035206;28;20044;-79
2022/04/22 07:51:37;;;;;;;16.48;11.77;;;12.60;99.90;;;;;;5034288;28;20036;-80
2022/04/22 07:54:04;;;;;;;17.77;11.63;;;12.60;99.90;;;;;;5035092;28;20021;-79
2022/04/22 07:56:30;;;;;;;13.98;11.18;;;12.50;99.90;;;;;;5016204;28;20140;-78
2022/04/22 07:58:56;;;;;;;14.25;11.68;;;12.60;99.90;;;;;;5016733;28;20132;-82
2022/04/22 08:01:21;;;;;;;16.58;11.43;;;12.80;99.90;;;;;;5016822;28;20116;-80
2022/04/22 08:03:47;;;;;;;13.82;11.07;;;13.00;99.90;;;;;;5017227;28;20060;-79
2022/04/22 08:06:13;;;;;;;14.77;10.85;;;13.30;99.90;;;;;;5035281;28;20091;-79
2022/04/22 08:08:38;;;;;;;16.55;11.38;;;13.70;99.90;;;;;;5035046;28;20102;-80
2022/04/22 08:11:04;;;;;;;14.45;10.60;;;13.90;99.90;;;;;;5034958;28;20548;-81
2022/04/22 08:13:30;;;;;;;15.18;10.90;;;14.00;99.90;;;;;;5036066;28;20419;-81
2022/04/22 08:15:55;;;;;;;15.98;12.48;;;14.10;99.90;;;;;;5037307;28;20404;-80
2022/04/22 08:18:21;;;;;;;16.90;11.18;;;14.10;99.90;;;;;;5018854;28;20503;-82
2022/04/22 08:20:46;;;;;;;13.88;11.18;;;14.20;99.90;;;;;;5037572;28;20383;-80
2022/04/22 08:23:12;;;;;;;13.63;10.73;;;14.40;99.90;;;;;;5019236;28;20036;-79
2022/04/22 08:25:37;;;;;;;15.88;12.23;;;14.30;99.90;;;;;;5037700;28;20060;-80
2022/04/22 08:28:04;;;;;;;19.15;11.15;;;14.30;99.90;;;;;;5037843;28;20094;-81
2022/04/22 08:30:30;;;;;;;13.65;11.43;;;14.20;99.90;;;;;;5019276;28;20036;-80
2022/04/22 08:32:56;;;;;;;11.45;10.18;;;14.70;99.90;;;;;;5060781;22;20072;-79
2022/04/22 08:35:22;;;;;;;12.68;11.07;;;15.10;99.90;;;;;;5038371;28;20029;-79
2022/04/22 08:37:48;;;;;;;13.88;11.23;;;15.00;99.90;;;;;;5038163;28;20026;-77
2022/04/22 08:40:14;;;;;;;15.75;12.35;;;14.90;99.90;;;;;;5020453;28;20209;-76
2022/04/22 08:42:41;;;;;;;15.65;11.73;;;14.90;99.90;;;;;;5038384;28;20040;-78
2022/04/22 08:45:09;;;;;;;16.42;12.50;;;14.60;99.90;;;;;;5025741;28;20043;-80
2022/04/22 08:50:21;;;;;;;14.60;12.75;;;14.10;99.90;;;;;;5057121;28;20108;-78
2022/04/22 08:52:56;;;;;;;19.02;13.82;;;13.80;99.90;;;;;;5057975;28;20040;-78
2022/04/22 08:55:25;;;;;;;16.98;13.77;;;14.20;99.90;;;;;;5056913;28;20021;-77
2022/04/22 08:57:52;;;;;;;15.27;12.15;;;14.90;99.90;;;;;;5056758;28;20032;-78
2022/04/22 09:00:22;;;;;;;15.43;12.48;;;14.90;99.90;;;;;;5056652;28;20045;-80
2022/04/22 09:02:48;;;;;;;16.30;11.68;;;14.70;99.90;;;;;;5039012;28;20108;-78
2022/04/22 09:05:14;;;;;;;16.02;11.50;;;14.60;99.90;;;;;;5039087;28;20232;-77
2022/04/22 09:07:43;;;;;;;13.80;11.88;;;14.70;99.90;;;;;;5055525;28;20048;-79
2022/04/22 09:10:10;;;;;;;14.05;10.70;;;14.70;99.90;;;;;;5036282;28;20032;-79
2022/04/22 09:12:35;;;;;;;16.10;11.30;;;14.60;99.90;;;;;;5038131;28;20017;-79
2022/04/22 09:15:01;;;;;;;13.85;10.70;;;14.30;99.90;;;;;;5056508;28;20074;-79
2022/04/22 09:17:32;;;;;;;14.27;11.15;;;14.30;99.90;;;;;;5056579;28;20396;-77
2022/04/22 09:19:59;;;;;;;13.27;10.18;;;14.20;99.90;;;;;;5057940;28;20025;-77
2022/04/22 09:22:26;;;;;;;14.23;9.57;;;14.40;99.90;;;;;;5037031;28;20032;-77
2022/04/22 09:24:57;;;;;;;15.73;9.07;;;14.50;99.90;;;;;;5038451;28;20025;-80
2022/04/22 09:27:38;;;;;;;13.05;8.75;;;14.50;99.90;;;;;;5038372;28;20060;-79
2022/04/22 09:30:09;;;;;;;11.82;8.55;;;14.50;99.90;;;;;;5054882;28;20116;-76
2022/04/22 09:32:39;;;;;;;13.25;9.90;;;14.40;99.90;;;;;;5055674;28;20114;-79
2022/04/22 09:35:17;;;;;;;12.48;9.48;;;14.30;99.90;;;;;;5056993;28;20021;-79
2022/04/22 09:43:34;;;;;;;15.65;10.27;;;14.10;99.90;;;;;;5055791;28;20032;-79
2022/04/22 09:46:00;;;;;;;14.57;8.65;;;14.20;99.90;;;;;;5041231;28;20179;-80
2022/04/22 09:48:25;;;;;;;12.45;8.45;;;14.20;99.90;;;;;;5036738;28;20061;-79
2022/04/22 09:50:56;;;;;;;12.68;8.23;;;14.30;99.90;;;;;;5036684;28;20045;-80
2022/04/22 09:53:35;;;;;;;12.10;7.72;;;14.40;99.90;;;;;;5036862;28;20017;-78
2022/04/22 09:56:09;;;;;;;11.10;7.68;;;14.10;99.90;;;;;;5037100;28;20014;-78
2022/04/22 09:58:36;;;;;;;9.50;7.65;;;13.90;99.90;;;;;;5017040;28;20385;-77
2022/04/22 10:01:06;;;;;;;11.10;7.97;;;13.80;99.90;;;;;;5035571;28;20076;-80
2022/04/22 10:03:33;;;;;;;11.65;8.10;;;13.90;99.90;;;;;;5036037;28;20036;-79
2022/04/22 10:05:59;;;;;;;9.50;7.93;;;14.10;99.90;;;;;;5036767;28;20551;-79
2022/04/22 10:08:28;;;;;;;11.57;7.65;;;14.10;99.90;;;;;;5034722;28;20489;-78
2022/04/22 10:10:57;;;;;;;14.32;7.57;;;14.10;99.90;;;;;;5036281;28;20219;-77
2022/04/22 10:13:26;;;;;;;12.05;7.45;;;14.10;99.90;;;;;;5016938;28;20048;-78
2022/04/22 10:15:52;;;;;;;12.77;8.77;;;14.00;99.90;;;;;;5038705;28;20029;-76
2022/04/22 10:18:20;;;;;;;12.80;7.50;;;14.00;99.90;;;;;;5039402;28;20674;-78
2022/04/22 10:20:47;;;;;;;11.40;8.70;;;14.30;99.90;;;;;;5040266;28;20021;-79
2022/04/22 10:23:13;;;;;;;14.70;9.35;;;14.70;99.90;;;;;;5039740;28;20032;-80
2022/04/22 10:25:39;;;;;;;11.73;9.15;;;15.00;99.90;;;;;;5041014;28;20026;-79
2022/04/22 10:28:08;;;;;;;14.20;9.90;;;15.20;99.90;;;;;;5039136;28;20052;-79
2022/04/22 10:30:34;;;;;;;13.50;9.73;;;15.10;99.90;;;;;;5039913;28;20426;-80
2022/04/22 10:33:00;;;;;;;12.05;8.88;;;14.80;99.90;;;;;;5038976;28;20038;-78
2022/04/22 10:35:26;;;;;;;13.85;10.85;;;14.50;99.90;;;;;;5039228;28;20018;-78
2022/04/22 10:37:52;;;;;;;14.75;10.68;;;14.10;99.90;;;;;;5037168;28;20091;-79
2022/04/22 10:40:23;;;;;;;17.15;12.40;;;14.00;99.90;;;;;;5037606;28;20458;-78
2022/04/22 10:42:50;;;;;;;15.57;10.85;;;14.00;99.90;;;;;;5021151;28;20025;-79
2022/04/22 10:48:17;;;;;;;15.18;11.32;;;14.00;99.90;;;;;;5059937;28;20031;-80
2022/04/22 10:50:56;;;;;;;18.17;11.88;;;14.00;99.90;;;;;;5041103;28;20066;-81
2022/04/22 10:53:23;;;;;;;14.57;11.90;;;14.20;99.90;;;;;;5057632;28;20021;-78
2022/04/22 10:55:49;;;;;;;17.58;12.07;;;14.40;99.90;;;;;;5057953;28;20429;-79
2022/04/22 10:58:19;;;;;;;14.00;10.68;;;14.60;99.90;;;;;;5056400;28;20112;-76
2022/04/22 11:01:04;;;;;;;15.27;11.65;;;14.80;99.90;;;;;;5057768;28;20423;-79
2022/04/22 11:03:36;;;;;;;15.65;10.88;;;14.90;99.90;;;;;;5039025;28;20029;-78
2022/04/22 11:06:06;;;;;;;18.80;11.85;;;14.80;99.90;;;;;;5040327;28;20086;-80
2022/04/22 11:08:36;;;;;;;15.65;12.13;;;14.70;99.90;;;;;;5058389;28;20093;-79
2022/04/22 11:11:05;;;;;;;16.77;12.27;;;14.80;99.90;;;;;;5041118;28;20075;-80
2022/04/22 11:13:51;;;;;;;17.67;12.57;;;14.90;99.90;;;;;;5040725;28;20070;-78
2022/04/22 11:16:19;;;;;;;18.08;12.98;;;15.50;99.90;;;;;;5058309;28;20032;-79
2022/04/22 11:19:05;;;;;;;17.15;12.05;;;15.80;99.90;;;;;;5040558;28;20021;-79
2022/04/22 11:21:31;;;;;;;14.77;10.88;;;15.80;99.90;;;;;;5058192;28;20032;-79
2022/04/22 11:23:57;;;;;;;16.70;11.38;;;15.90;99.90;;;;;;5042159;28;20423;-79
2022/04/22 11:26:24;;;;;;;14.60;10.43;;;16.00;99.90;;;;;;5059256;28;20029;-78
2022/04/22 11:28:50;;;;;;;13.32;9.95;;;15.90;99.90;;;;;;5058574;28;20036;-79
2022/04/22 11:31:18;;;;;;;13.23;10.80;;;15.70;99.90;;;;;;5057454;28;20027;-79
2022/04/22 11:33:45;;;;;;;13.77;9.32;;;15.60;99.90;;;;;;5067444;28;20021;-78
2022/04/22 11:36:11;;;;;;;15.52;10.25;;;15.40;99.90;;;;;;5071047;28;20013;-80
2022/04/22 11:38:46;;;;;;;13.35;9.63;;;15.30;99.90;;;;;;5067392;28;20331;-79
2022/04/22 11:41:13;;;;;;;17.23;10.73;;;15.30;99.90;;;;;;5040327;28;20025;-77
2022/04/22 11:43:38;;;;;;;15.25;10.82;;;15.00;99.90;;;;;;5057574;28;20021;-79
2022/04/22 11:46:05;;;;;;;18.48;10.27;;;14.80;99.90;;;;;;5024437;28;20036;-79
2022/04/22 11:48:31;;;;;;;16.00;10.32;;;14.70;99.90;;;;;;5037707;28;20425;-80
2022/04/22 11:51:00;;;;;;;15.70;10.57;;;14.80;99.90;;;;;;5038152;28;20037;-77
2022/04/22 11:53:29;;;;;;;17.92;11.48;;;14.80;99.90;;;;;;5019344;28;20507;-78
2022/04/22 11:55:55;;;;;;;16.85;11.10;;;14.80;99.90;;;;;;5037650;28;20050;-78
2022/04/22 11:58:24;;;;;;;18.75;11.93;;;14.80;99.90;;;;;;5037421;28;20060;-79
2022/04/22 12:06:21;;;;;;;15.50;10.48;;;14.60;99.90;;;;;;5038199;28;20164;-79
2022/04/22 12:08:56;;;;;;;15.57;11.18;;;14.50;99.90;;;;;;5037680;28;20494;-78
2022/04/22 12:11:23;;;;;;;14.77;10.50;;;14.50;99.90;;;;;;5037086;28;20029;-79
2022/04/22 12:13:49;;;;;;;12.82;10.45;;;14.60;99.90;;;;;;5018670;28;20418;-76
2022/04/22 12:16:28;;;;;;;13.55;9.75;;;14.70;99.90;;;;;;5018951;28;20032;-77
2022/04/22 12:18:54;;;;;;;15.70;10.57;;;14.80;99.90;;;;;;5036877;28;20096;-78
2022/04/22 12:21:22;;;;;;;14.75;9.95;;;15.00;99.90;;;;;;5036120;28;20095;-78
2022/04/22 12:23:49;;;;;;;13.13;9.63;;;15.30;99.90;;;;;;5036844;28;20033;-78
2022/04/22 12:26:20;;;;;;;13.50;10.35;;;15.50;99.90;;;;;;5035471;28;20108;-77
2022/04/22 12:28:55;;;;;;;14.18;9.70;;;15.60;99.90;;;;;;5018400;28;20484;-77
2022/04/22 12:31:25;;;;;;;11.43;9.48;;;15.60;99.90;;;;;;5036852;28;20124;-79
2022/04/22 12:34:02;;;;;;;12.43;8.77;;;15.50;99.90;;;;;;5019013;28;20404;-78
2022/04/22 12:36:30;;;;;;;13.65;8.90;;;15.50;99.90;;;;;;5034612;28;20025;-77
2022/04/22 12:38:56;;;;;;;15.40;9.80;;;15.10;99.90;;;;;;5035621;28;20366;-78
2022/04/22 12:41:22;;;;;;;13.32;9.88;;;15.10;99.90;;;;;;5037500;28;20060;-77
2022/04/22 12:43:50;;;;;;;14.40;10.40;;;15.40;99.90;;;;;;5037394;28;20057;-77
2022/04/22 12:52:22;;;;;;;13.82;10.85;;;14.80;99.90;;;;;;5057221;28;20086;-79
2022/04/22 12:54:48;;;;;;;17.65;11.30;;;14.60;99.90;;;;;;5037355;28;20025;-78
2022/04/22 12:57:23;;;;;;;14.55;10.25;;;14.20;99.90;;;;;;5055762;28;20072;-77
2022/04/22 12:59:54;;;;;;;14.30;10.30;;;14.10;99.90;;;;;;5057042;28;20097;-79
2022/04/22 13:02:29;;;;;;;14.63;10.70;;;14.10;99.90;;;;;;5056968;28;20025;-78
2022/04/22 13:04:59;;;;;;;13.32;9.65;;;14.20;99.90;;;;;;5054953;28;20029;-78
2022/04/22 13:07:47;;;;;;;13.10;9.30;;;14.20;99.90;;;;;;5037128;28;20057;-79
2022/04/22 13:10:13;;;;;;;11.18;8.63;;;14.30;99.90;;;;;;5054856;28;20514;-78
2022/04/22 13:12:40;;;;;;;11.65;9.32;;;14.50;99.90;;;;;;5055451;28;20036;-77
2022/04/22 13:15:14;;;;;;;14.88;9.80;;;14.40;99.90;;;;;;5038672;28;20075;-78
2022/04/22 13:17:43;;;;;;;12.55;9.00;;;14.60;99.90;;;;;;5058299;28;20074;-80
2022/04/22 13:20:10;;;;;;;11.15;9.15;;;14.80;99.90;;;;;;5039738;28;20021;-79
2022/04/22 13:22:36;;;;;;;11.18;8.80;;;15.30;99.90;;;;;;5057345;28;20021;-78
2022/04/22 13:25:03;;;;;;;12.95;8.65;;;15.60;99.90;;;;;;5037761;28;20132;-80
2022/04/22 13:27:28;;;;;;;14.18;8.57;;;15.90;99.90;;;;;;5056748;28;20021;-78
2022/04/22 13:29:54;;;;;;;13.00;9.25;;;16.30;99.90;;;;;;5054237;28;20031;-78
2022/04/22 13:32:20;;;;;;;10.82;8.57;;;16.30;99.90;;;;;;5055272;28;20033;-79
2022/04/22 13:34:45;;;;;;;11.80;9.13;;;15.90;99.90;;;;;;5054262;28;20025;-77
2022/04/22 13:37:11;;;;;;;14.13;9.73;;;16.00;99.90;;;;;;5037347;28;20067;-77
2022/04/22 13:39:36;;;;;;;12.45;9.35;;;16.10;99.90;;;;;;5053867;28;20021;-77